createdAt,value
2018-08-03T00:01:54.964Z,25.87
2018-08-03T00:04:24.309Z,28.60
2018-08-03T00:06:53.305Z,23.93
2018-08-03T00:09:22.647Z,21.83
2018-08-03T00:11:51.616Z,21.83
2018-08-03T00:14:20.967Z,21.70
2018-08-03T00:16:50.295Z,20.00
2018-08-03T00:19:19.819Z,19.83
2018-08-03T00:21:49.212Z,21.23
2018-08-03T00:24:18.441Z,20.30
2018-08-03T00:26:48.072Z,19.93
2018-08-03T00:29:17.564Z,20.17
2018-08-03T00:31:46.904Z,19.73
2018-08-03T00:34:16.115Z,18.33
2018-08-03T00:36:45.161Z,19.13
2018-08-03T00:39:14.417Z,18.70
2018-08-03T00:41:43.456Z,18.97
2018-08-03T00:44:12.816Z,20.27
2018-08-03T00:46:42.088Z,19.93
2018-08-03T00:49:11.228Z,19.00
2018-08-03T00:51:40.815Z,18.47
2018-08-03T00:54:10.231Z,19.00
2018-08-03T00:56:39.440Z,21.00
2018-08-03T00:59:08.800Z,22.03
2018-08-03T01:01:38.099Z,37.67
2018-08-03T01:04:07.183Z,34.47
2018-08-03T01:06:36.597Z,24.17
2018-08-03T01:09:09.387Z,20.47
2018-08-03T01:11:38.525Z,19.23
2018-08-03T01:14:07.992Z,19.97
2018-08-03T01:16:40.229Z,19.50
2018-08-03T01:19:12.024Z,19.50
2018-08-03T01:21:41.644Z,21.33
2018-08-03T01:24:11.087Z,20.83
2018-08-03T01:26:40.128Z,21.23
2018-08-03T01:29:09.340Z,20.57
2018-08-03T01:31:38.707Z,18.43
2018-08-03T01:34:07.790Z,19.77
2018-08-03T01:36:37.083Z,19.47
2018-08-03T01:39:08.148Z,18.83
2018-08-03T01:41:37.479Z,19.03
2018-08-03T01:44:06.778Z,20.33
2018-08-03T01:46:36.085Z,19.83
2018-08-03T01:49:05.520Z,20.10
2018-08-03T01:51:34.944Z,22.63
2018-08-03T01:54:04.360Z,19.57
2018-08-03T01:56:33.788Z,20.37
2018-08-03T01:59:03.048Z,20.10
2018-08-03T02:01:32.151Z,20.73
2018-08-03T02:04:01.296Z,21.90
2018-08-03T02:06:30.591Z,22.17
2018-08-03T02:08:59.954Z,20.50
2018-08-03T02:11:29.186Z,19.93
2018-08-03T02:13:58.405Z,20.37
2018-08-03T02:16:28.344Z,20.07
2018-08-03T02:18:57.623Z,18.90
2018-08-03T02:21:26.900Z,17.93
2018-08-03T02:23:56.332Z,22.10
2018-08-03T02:26:25.846Z,18.80
2018-08-03T02:28:55.059Z,23.20
2018-08-03T02:31:24.803Z,33.40
2018-08-03T02:33:54.141Z,32.37
2018-08-03T02:36:23.156Z,38.43
2018-08-03T02:38:52.418Z,47.60
2018-08-03T02:41:21.156Z,37.77
2018-08-03T02:43:50.172Z,27.60
2018-08-03T02:46:19.334Z,28.57
2018-08-03T02:48:48.141Z,32.33
2018-08-03T02:51:17.455Z,32.73
2018-08-03T02:53:46.603Z,34.50
2018-08-03T02:56:15.883Z,28.80
2018-08-03T02:58:44.975Z,42.47
2018-08-03T03:01:13.615Z,33.60
2018-08-03T03:03:43.179Z,41.37
2018-08-03T03:06:12.296Z,62.70
2018-08-03T03:08:41.246Z,73.00
2018-08-03T03:11:11.176Z,83.77
2018-08-03T03:13:40.400Z,72.47
2018-08-03T03:16:09.479Z,119.17
2018-08-03T03:18:38.778Z,83.20
2018-08-03T03:21:08.040Z,71.13
2018-08-03T03:23:37.193Z,54.97
2018-08-03T03:26:06.451Z,32.10
2018-08-03T03:28:35.640Z,33.80
2018-08-03T03:31:05.284Z,88.00
2018-08-03T03:33:34.560Z,74.33
2018-08-03T03:36:03.685Z,190.70
2018-08-03T03:38:33.119Z,150.93
2018-08-03T03:41:02.651Z,77.13
2018-08-03T03:43:31.778Z,82.53
2018-08-03T03:46:01.028Z,111.37
2018-08-03T03:48:30.419Z,52.90
2018-08-03T03:50:59.546Z,149.97
2018-08-03T03:53:28.826Z,126.77
2018-08-03T03:55:57.908Z,110.80
2018-08-03T03:58:27.173Z,136.87
2018-08-03T04:00:56.420Z,135.47
2018-08-03T04:03:25.594Z,155.37
2018-08-03T04:05:54.873Z,203.20
2018-08-03T04:08:23.973Z,129.63
2018-08-03T04:10:53.427Z,136.33
2018-08-03T04:13:23.362Z,137.90
2018-08-03T04:15:52.611Z,157.13
2018-08-03T04:18:22.673Z,129.80
2018-08-03T04:20:52.680Z,135.80
2018-08-03T04:23:22.155Z,88.10
2018-08-03T04:25:51.216Z,134.87
2018-08-03T04:28:20.563Z,129.70
2018-08-03T04:30:49.711Z,121.57
2018-08-03T04:33:18.990Z,70.93
2018-08-03T04:35:49.134Z,52.30
2018-08-03T04:38:18.417Z,78.47
2018-08-03T04:40:47.570Z,154.10
2018-08-03T04:43:16.760Z,68.90
2018-08-03T04:45:45.924Z,84.47
2018-08-03T04:48:15.241Z,65.20
2018-08-03T04:50:44.304Z,111.37
2018-08-03T04:53:13.406Z,148.07
2018-08-03T04:55:42.543Z,137.07
2018-08-03T04:58:11.734Z,94.73
2018-08-03T05:00:40.919Z,55.27
2018-08-03T05:03:10.614Z,51.57
2018-08-03T05:05:39.900Z,73.93
2018-08-03T05:08:08.832Z,42.60
2018-08-03T05:10:38.068Z,47.90
2018-08-03T05:13:07.334Z,57.70
2018-08-03T05:15:36.565Z,44.03
2018-08-03T05:18:05.764Z,31.50
2018-08-03T05:20:35.061Z,49.50
2018-08-03T05:23:04.329Z,67.87
2018-08-03T05:25:33.019Z,63.33
2018-08-03T05:28:02.145Z,61.40
2018-08-03T05:30:31.299Z,32.40
2018-08-03T05:33:00.632Z,36.43
2018-08-03T05:35:29.868Z,35.63
2018-08-03T05:37:58.994Z,32.17
2018-08-03T05:40:28.052Z,32.30
2018-08-03T05:42:57.481Z,31.37
2018-08-03T05:45:26.654Z,33.10
2018-08-03T05:47:55.921Z,32.73
2018-08-03T05:50:25.071Z,28.47
2018-08-03T05:52:54.507Z,28.77
2018-08-03T05:55:23.652Z,26.70
2018-08-03T05:57:53.290Z,27.10
2018-08-03T06:00:22.637Z,28.30
2018-08-03T06:02:51.788Z,37.83
2018-08-03T06:05:21.340Z,40.23
2018-08-03T06:07:50.639Z,33.27
2018-08-03T06:10:20.032Z,29.93
2018-08-03T06:12:49.259Z,28.73
2018-08-03T06:15:18.731Z,27.70
2018-08-03T06:17:47.958Z,29.97
2018-08-03T06:20:17.736Z,31.20
2018-08-03T06:22:47.242Z,35.80
2018-08-03T06:25:16.718Z,30.07
2018-08-03T06:27:46.152Z,28.10
2018-08-03T06:30:15.278Z,26.43
2018-08-03T06:32:44.755Z,27.87
2018-08-03T06:35:14.089Z,26.87
2018-08-03T06:37:43.193Z,23.80
2018-08-03T06:40:12.352Z,26.37
2018-08-03T06:42:41.764Z,23.63
2018-08-03T06:45:11.288Z,25.77
2018-08-03T06:47:40.577Z,21.85
2018-08-03T06:50:09.531Z,21.85
2018-08-03T06:52:38.917Z,19.15
2018-08-03T06:55:08.166Z,20.02
2018-08-03T06:57:37.658Z,18.85
2018-08-03T07:00:07.425Z,16.30
2018-08-03T07:02:36.716Z,16.62
2018-08-03T07:05:05.854Z,15.65
2018-08-03T07:07:35.093Z,22.07
2018-08-03T07:10:04.419Z,17.50
2018-08-03T07:12:33.475Z,13.90
2018-08-03T07:15:02.688Z,14.28
2018-08-03T07:17:31.999Z,10.50
2018-08-03T07:20:01.130Z,12.20
2018-08-03T07:22:30.319Z,9.80
2018-08-03T07:24:59.899Z,9.03
2018-08-03T07:27:28.931Z,7.65
2018-08-03T07:29:58.433Z,8.38
2018-08-03T07:32:27.928Z,10.80
2018-08-03T07:34:57.460Z,7.72
2018-08-03T07:37:27.172Z,8.50
2018-08-03T07:39:56.841Z,8.83
2018-08-03T07:42:26.802Z,8.90
2018-08-03T07:44:55.925Z,8.73
2018-08-03T07:47:25.164Z,6.53
2018-08-03T07:49:54.304Z,6.60
2018-08-03T07:52:23.845Z,10.13
2018-08-03T07:54:53.262Z,7.40
2018-08-03T07:57:22.559Z,7.95
2018-08-03T07:59:52.021Z,9.55
2018-08-03T08:02:21.549Z,7.28
2018-08-03T08:04:50.669Z,7.10
2018-08-03T08:07:19.923Z,9.25
2018-08-03T08:09:49.113Z,8.45
2018-08-03T08:12:18.523Z,7.67
2018-08-03T08:14:47.822Z,6.40
2018-08-03T08:17:17.240Z,9.33
2018-08-03T08:19:46.496Z,16.17
2018-08-03T08:22:15.749Z,8.53
2018-08-03T08:24:45.171Z,7.90
2018-08-03T08:27:14.566Z,9.30
2018-08-03T08:29:43.995Z,6.10
2018-08-03T08:32:13.308Z,9.38
2018-08-03T08:34:42.486Z,9.53
2018-08-03T08:37:11.753Z,9.30
2018-08-03T08:39:41.093Z,6.08
2018-08-03T08:42:10.585Z,8.68
2018-08-03T08:44:40.248Z,9.08
2018-08-03T08:47:10.519Z,5.28
2018-08-03T08:49:39.975Z,14.85
2018-08-03T08:52:09.003Z,5.25
2018-08-03T08:54:38.522Z,7.75
2018-08-03T08:57:07.650Z,7.83
2018-08-03T08:59:37.151Z,10.53
2018-08-03T09:02:06.457Z,4.65
2018-08-03T09:04:35.516Z,11.00
2018-08-03T09:07:04.758Z,9.28
2018-08-03T09:09:34.674Z,14.25
2018-08-03T09:12:03.929Z,5.22
2018-08-03T09:14:33.356Z,6.28
2018-08-03T09:17:03.400Z,7.08
2018-08-03T09:19:32.659Z,5.05
2018-08-03T09:22:03.018Z,6.83
2018-08-03T09:24:32.216Z,5.85
2018-08-03T09:27:01.518Z,5.03
2018-08-03T09:29:30.834Z,6.62
2018-08-03T09:32:00.322Z,7.62
2018-08-03T09:34:29.950Z,4.72
2018-08-03T09:36:59.547Z,4.83
2018-08-03T09:39:28.978Z,5.87
2018-08-03T09:41:58.310Z,5.35
2018-08-03T09:44:27.703Z,5.35
2018-08-03T09:46:57.379Z,5.28
2018-08-03T09:49:27.006Z,6.53
2018-08-03T09:51:56.316Z,5.00
2018-08-03T09:54:25.519Z,7.05
2018-08-03T09:56:54.878Z,6.58
2018-08-03T09:59:24.054Z,6.42
2018-08-03T10:01:54.393Z,4.60
2018-08-03T10:04:23.599Z,4.85
2018-08-03T10:06:52.893Z,5.12
2018-08-03T10:09:22.152Z,8.30
2018-08-03T10:11:51.361Z,5.72
2018-08-03T10:14:21.398Z,4.42
2018-08-03T10:16:50.923Z,6.28
2018-08-03T10:19:21.007Z,5.80
2018-08-03T10:21:50.148Z,5.15
2018-08-03T10:24:19.622Z,6.12
2018-08-03T10:26:48.957Z,6.50
2018-08-03T10:29:18.388Z,5.42
2018-08-03T10:31:48.167Z,9.23
2018-08-03T10:34:17.344Z,6.95
2018-08-03T10:36:47.052Z,8.00
2018-08-03T10:39:16.227Z,6.37
2018-08-03T10:41:45.809Z,7.90
2018-08-03T10:44:15.089Z,7.62
2018-08-03T10:46:45.376Z,8.18
2018-08-03T10:49:15.835Z,21.37
2018-08-03T10:51:45.514Z,9.80
2018-08-03T10:54:16.395Z,8.38
2018-08-03T10:56:46.132Z,7.03
2018-08-03T10:59:15.169Z,4.60
2018-08-03T11:01:45.159Z,6.78
2018-08-03T11:04:14.465Z,6.78
2018-08-03T11:06:43.808Z,6.05
2018-08-03T11:09:13.365Z,7.15
2018-08-03T11:11:42.612Z,5.95
2018-08-03T11:14:11.772Z,7.33
2018-08-03T11:16:40.960Z,5.30
2018-08-03T11:19:10.572Z,5.12
2018-08-03T11:21:39.962Z,5.25
2018-08-03T11:24:09.603Z,4.62
2018-08-03T11:26:39.103Z,4.67
2018-08-03T11:29:08.283Z,4.15
2018-08-03T11:31:37.647Z,5.37
2018-08-03T11:34:06.082Z,5.58
2018-08-03T11:36:35.637Z,5.70
2018-08-03T11:39:06.958Z,4.97
2018-08-03T11:41:36.380Z,7.92
2018-08-03T11:44:06.100Z,8.45
2018-08-03T11:46:35.332Z,10.05
2018-08-03T11:49:04.811Z,8.75
2018-08-03T11:51:34.767Z,5.80
2018-08-03T11:54:03.974Z,4.85
2018-08-03T11:56:33.313Z,5.62
2018-08-03T11:59:02.684Z,4.33
2018-08-03T12:01:32.248Z,4.30
2018-08-03T12:04:01.864Z,3.98
2018-08-03T12:06:31.065Z,5.42
2018-08-03T12:09:00.250Z,7.28
2018-08-03T12:11:29.852Z,5.15
2018-08-03T12:13:59.388Z,3.98
2018-08-03T12:16:28.575Z,5.87
2018-08-03T12:18:57.798Z,6.00
2018-08-03T12:21:26.944Z,5.53
2018-08-03T12:23:56.629Z,6.08
2018-08-03T12:26:25.966Z,5.95
2018-08-03T12:28:55.202Z,5.20
2018-08-03T12:31:24.472Z,4.70
2018-08-03T12:33:53.956Z,7.33
2018-08-03T12:36:23.415Z,5.60
2018-08-03T12:38:52.850Z,4.42
2018-08-03T12:41:23.548Z,6.28
2018-08-03T12:43:52.863Z,4.40
2018-08-03T12:46:22.232Z,4.80
2018-08-03T12:48:51.488Z,6.50
2018-08-03T12:51:20.836Z,5.62
2018-08-03T12:53:50.147Z,4.08
2018-08-03T12:56:19.863Z,5.25
2018-08-03T12:58:49.229Z,9.25
2018-08-03T13:01:18.890Z,4.15
2018-08-03T13:03:48.044Z,4.65
2018-08-03T13:06:17.249Z,4.83
2018-08-03T13:08:46.461Z,4.47
2018-08-03T13:11:15.608Z,7.00
2018-08-03T13:13:44.713Z,4.78
2018-08-03T13:16:14.244Z,6.90
2018-08-03T13:18:43.453Z,4.12
2018-08-03T13:21:23.580Z,4.47
2018-08-03T13:23:57.243Z,5.35
2018-08-03T13:26:26.868Z,6.80
2018-08-03T13:28:56.512Z,5.53
2018-08-03T13:31:26.579Z,4.53
2018-08-03T13:33:56.144Z,7.55
2018-08-03T13:36:26.434Z,6.00
2018-08-03T13:38:55.838Z,5.58
2018-08-03T13:41:25.221Z,4.30
2018-08-03T13:43:54.151Z,4.72
2018-08-03T13:46:23.969Z,6.47
2018-08-03T13:48:53.128Z,4.72
2018-08-03T13:51:22.817Z,4.62
2018-08-03T13:53:51.973Z,4.78
2018-08-03T13:56:21.231Z,4.78
2018-08-03T13:58:50.312Z,4.60
2018-08-03T14:01:31.111Z,5.37
2018-08-03T14:04:00.482Z,6.45
2018-08-03T14:06:29.804Z,4.72
2018-08-03T14:08:59.163Z,5.70
2018-08-03T14:11:28.264Z,4.70
2018-08-03T14:13:57.525Z,5.00
2018-08-03T14:16:27.772Z,5.60
2018-08-03T14:18:56.985Z,4.70
2018-08-03T14:21:26.844Z,4.90
2018-08-03T14:23:55.474Z,4.47
2018-08-03T14:26:25.065Z,5.92
2018-08-03T14:28:55.645Z,4.90
2018-08-03T14:31:25.141Z,4.45
2018-08-03T14:33:54.634Z,5.40
2018-08-03T14:36:23.844Z,4.83
2018-08-03T14:38:56.570Z,5.97
2018-08-03T14:41:26.182Z,5.35
2018-08-03T14:43:55.362Z,6.62
2018-08-03T14:46:30.063Z,7.28
2018-08-03T14:49:06.606Z,4.95
2018-08-03T14:51:36.664Z,6.08
2018-08-03T14:54:06.489Z,4.90
2018-08-03T14:56:39.512Z,5.53
2018-08-03T14:59:13.023Z,8.80
2018-08-03T15:01:42.563Z,8.95
2018-08-03T15:04:12.021Z,7.95
2018-08-03T15:06:41.967Z,6.37
2018-08-03T15:09:12.746Z,6.62
2018-08-03T15:11:42.118Z,6.67
2018-08-03T15:14:11.939Z,5.20
2018-08-03T15:16:41.720Z,5.95
2018-08-03T15:19:10.997Z,6.58
2018-08-03T15:21:40.487Z,4.92
2018-08-03T15:24:10.504Z,6.35
2018-08-03T15:26:40.704Z,10.23
2018-08-03T15:29:09.796Z,6.83
2018-08-03T15:31:39.203Z,9.53
2018-08-03T15:34:08.300Z,5.72
2018-08-03T15:36:37.460Z,7.87
2018-08-03T15:39:09.767Z,5.22
2018-08-03T15:41:39.642Z,5.65
2018-08-03T15:44:09.023Z,5.28
2018-08-03T15:46:38.101Z,6.50
2018-08-03T15:49:08.372Z,4.95
2018-08-03T15:51:37.539Z,5.22
2018-08-03T15:54:07.963Z,10.40
2018-08-03T15:56:37.537Z,6.65
2018-08-03T15:59:06.797Z,7.60
2018-08-03T16:01:35.939Z,4.70
2018-08-03T16:04:05.827Z,4.55
2018-08-03T16:06:34.996Z,4.80
2018-08-03T16:09:06.460Z,7.28
2018-08-03T16:11:35.812Z,5.60
2018-08-03T16:14:05.332Z,5.10
2018-08-03T16:16:35.506Z,4.70
2018-08-03T16:19:04.746Z,6.53
2018-08-03T16:21:34.250Z,7.22
2018-08-03T16:24:03.913Z,9.28
2018-08-03T16:26:33.943Z,9.75
2018-08-03T16:29:03.360Z,7.92
2018-08-03T16:31:32.626Z,6.55
2018-08-03T16:34:02.727Z,6.42
2018-08-03T16:36:32.063Z,11.20
2018-08-03T16:39:01.406Z,5.92
2018-08-03T16:41:31.874Z,5.70
2018-08-03T16:44:01.517Z,9.18
2018-08-03T16:46:31.024Z,9.35
2018-08-03T16:49:00.525Z,7.97
2018-08-03T16:51:29.862Z,5.17
2018-08-03T16:53:59.394Z,6.95
2018-08-03T16:56:28.813Z,8.45
2018-08-03T16:58:58.244Z,8.05
2018-08-03T17:01:27.541Z,16.77
2018-08-03T17:03:56.646Z,7.92
2018-08-03T17:06:25.934Z,5.75
2018-08-03T17:08:55.032Z,13.95
2018-08-03T17:11:24.259Z,6.17
2018-08-03T17:13:53.445Z,6.05
2018-08-03T17:16:22.637Z,8.78
2018-08-03T17:18:52.045Z,5.78
2018-08-03T17:21:21.269Z,10.08
2018-08-03T17:23:50.393Z,8.43
2018-08-03T17:26:19.718Z,7.40
2018-08-03T17:28:48.824Z,11.20
2018-08-03T17:31:18.027Z,21.25
2018-08-03T17:33:47.191Z,12.10
2018-08-03T17:36:16.531Z,15.00
2018-08-03T17:38:45.776Z,12.18
2018-08-03T17:41:14.901Z,19.82
2018-08-03T17:43:44.164Z,17.65
2018-08-03T17:46:13.312Z,19.48
2018-08-03T17:48:42.516Z,14.73
2018-08-03T17:51:11.701Z,15.85
2018-08-03T17:53:41.247Z,13.22
2018-08-03T17:56:10.518Z,12.90
2018-08-03T17:58:40.055Z,17.10
2018-08-03T18:01:09.145Z,13.78
2018-08-03T18:03:38.339Z,12.68
2018-08-03T18:06:07.542Z,14.33
2018-08-03T18:08:36.558Z,13.95
2018-08-03T18:11:05.771Z,15.58
2018-08-03T18:13:35.216Z,15.43
2018-08-03T18:16:04.896Z,14.83
2018-08-03T18:18:34.178Z,15.23
2018-08-03T18:21:03.417Z,14.50
2018-08-03T18:23:32.812Z,15.55
2018-08-03T18:26:02.067Z,12.23
2018-08-03T18:28:31.394Z,11.90
2018-08-03T18:31:01.025Z,12.63
2018-08-03T18:33:30.427Z,15.18
2018-08-03T18:35:59.800Z,12.20
2018-08-03T18:38:29.289Z,13.70
2018-08-03T18:40:59.090Z,10.93
2018-08-03T18:43:28.872Z,10.88
2018-08-03T18:45:58.707Z,11.95
2018-08-03T18:48:28.013Z,11.18
2018-08-03T18:50:57.677Z,13.30
2018-08-03T18:53:27.406Z,11.43
2018-08-03T18:55:56.864Z,14.10
2018-08-03T18:58:26.434Z,11.50
2018-08-03T19:00:55.987Z,14.33
2018-08-03T19:03:25.656Z,13.67
2018-08-03T19:05:55.024Z,12.30
2018-08-03T19:08:24.567Z,13.17
2018-08-03T19:10:54.197Z,15.67
2018-08-03T19:13:23.710Z,16.70
2018-08-03T19:15:53.063Z,21.90
2018-08-03T19:18:22.964Z,17.10
2018-08-03T19:20:52.680Z,23.57
2018-08-03T19:23:21.871Z,28.60
2018-08-03T19:25:51.832Z,16.37
2018-08-03T19:28:21.572Z,17.47
2018-08-03T19:30:50.795Z,15.33
2018-08-03T19:33:20.123Z,14.10
2018-08-03T19:35:49.597Z,13.13
2018-08-03T19:38:19.174Z,17.83
2018-08-03T19:40:48.649Z,13.17
2018-08-03T19:43:18.184Z,15.33
2018-08-03T19:45:47.571Z,15.80
2018-08-03T19:48:16.788Z,22.27
2018-08-03T19:50:45.985Z,20.63
2018-08-03T19:53:15.156Z,30.20
2018-08-03T19:55:44.657Z,21.63
2018-08-03T19:58:13.948Z,21.47
2018-08-03T20:00:43.078Z,19.07
2018-08-03T20:03:12.947Z,18.20
2018-08-03T20:05:42.793Z,18.27
2018-08-03T20:08:12.067Z,16.27
2018-08-03T20:10:41.517Z,17.50
2018-08-03T20:13:11.208Z,20.20
2018-08-03T20:15:40.327Z,21.03
2018-08-03T20:18:09.639Z,28.20
2018-08-03T20:20:38.835Z,25.03
2018-08-03T20:23:08.181Z,17.33
2018-08-03T20:25:37.632Z,39.00
2018-08-03T20:28:06.546Z,41.33
2018-08-03T20:30:35.847Z,69.07
2018-08-03T20:33:05.013Z,26.93
2018-08-03T20:35:34.209Z,21.60
2018-08-03T20:38:03.427Z,19.87
2018-08-03T20:40:33.368Z,21.50
2018-08-03T20:43:02.697Z,23.60
2018-08-03T20:45:31.951Z,20.33
2018-08-03T20:48:01.445Z,16.73
2018-08-03T20:50:30.466Z,21.77
2018-08-03T20:52:59.720Z,18.30
2018-08-03T20:55:28.956Z,25.43
2018-08-03T20:57:58.110Z,24.13
2018-08-03T21:00:27.129Z,23.97
2018-08-03T21:02:56.546Z,26.67
2018-08-03T21:05:26.792Z,31.37
2018-08-03T21:07:56.063Z,21.13
2018-08-03T21:10:25.466Z,25.47
2018-08-03T21:12:54.696Z,23.80
2018-08-03T21:15:24.098Z,22.50
2018-08-03T21:17:53.293Z,27.43
2018-08-03T21:20:22.529Z,26.87
2018-08-03T21:22:51.923Z,26.53
2018-08-03T21:25:21.035Z,24.50
2018-08-03T21:27:50.287Z,25.83
2018-08-03T21:30:19.566Z,25.83
2018-08-03T21:32:48.987Z,25.33
2018-08-03T21:35:18.117Z,20.13
2018-08-03T21:37:47.473Z,17.70
2018-08-03T21:40:16.769Z,22.73
2018-08-03T21:42:45.943Z,24.73
2018-08-03T21:45:15.228Z,24.80
2018-08-03T21:47:44.572Z,25.13
2018-08-03T21:50:13.797Z,30.07
2018-08-03T21:52:43.062Z,32.27
2018-08-03T21:55:12.240Z,30.83
2018-08-03T21:57:41.328Z,26.07
2018-08-03T22:00:13.962Z,26.17
2018-08-03T22:02:42.992Z,27.20
2018-08-03T22:05:12.126Z,26.23
2018-08-03T22:07:41.315Z,27.83
2018-08-03T22:10:10.618Z,29.90
2018-08-03T22:12:39.773Z,33.37
2018-08-03T22:15:08.911Z,29.80
2018-08-03T22:17:38.410Z,21.80
2018-08-03T22:20:07.629Z,25.93
2018-08-03T22:22:36.939Z,24.40
2018-08-03T22:25:06.421Z,21.77
2018-08-03T22:27:35.581Z,21.67
2018-08-03T22:30:05.329Z,18.00
2018-08-03T22:32:34.534Z,19.77
2018-08-03T22:35:03.183Z,39.87
2018-08-03T22:37:32.546Z,28.87
2018-08-03T22:40:01.643Z,26.20
2018-08-03T22:42:30.895Z,24.83
2018-08-03T22:45:00.076Z,24.00
2018-08-03T22:47:29.289Z,24.70
2018-08-03T22:49:58.444Z,27.33
2018-08-03T22:52:27.715Z,32.73
2018-08-03T22:54:56.832Z,32.20
2018-08-03T22:57:26.097Z,32.23
2018-08-03T22:59:55.287Z,28.57
2018-08-03T23:02:24.935Z,26.87
2018-08-03T23:04:54.183Z,24.37
2018-08-03T23:07:23.421Z,23.47
2018-08-03T23:09:52.633Z,24.07
2018-08-03T23:12:21.881Z,22.53
2018-08-03T23:14:51.211Z,26.87
2018-08-03T23:17:19.936Z,22.43
2018-08-03T23:19:49.155Z,21.23
2018-08-03T23:22:18.559Z,22.30
2018-08-03T23:24:47.756Z,22.13
2018-08-03T23:27:17.524Z,19.87
2018-08-03T23:29:46.651Z,21.57
2018-08-03T23:32:15.860Z,25.50
2018-08-03T23:34:45.018Z,16.57
2018-08-03T23:37:14.290Z,22.03
2018-08-03T23:39:42.952Z,24.17
2018-08-03T23:42:12.105Z,24.63
2018-08-03T23:44:41.427Z,22.23
2018-08-03T23:47:10.628Z,19.73
2018-08-03T23:49:40.127Z,19.13
2018-08-03T23:52:09.315Z,17.93
2018-08-03T23:54:38.535Z,17.03
2018-08-03T23:57:07.764Z,17.07
2018-08-03T23:59:36.875Z,16.90
